createdAt,value
2019-02-14T00:00:55.613Z,45.15
2019-02-14T00:03:25.780Z,45.19
2019-02-14T00:05:56.647Z,45.41
2019-02-14T00:08:28.049Z,45.34
2019-02-14T00:10:59.445Z,45.32
2019-02-14T00:13:30.060Z,45.10
2019-02-14T00:16:02.225Z,44.68
2019-02-14T00:18:32.733Z,45.36
2019-02-14T00:21:03.339Z,44.98
2019-02-14T00:23:35.225Z,44.35
2019-02-14T00:26:05.518Z,44.35
2019-02-14T00:28:35.680Z,44.54
2019-02-14T00:31:07.863Z,44.36
2019-02-14T00:33:39.055Z,45.16
2019-02-14T00:36:10.069Z,45.34
2019-02-14T00:38:40.630Z,44.65
2019-02-14T00:41:11.493Z,45.17
2019-02-14T00:43:42.492Z,44.72
2019-02-14T00:46:15.296Z,45.05
2019-02-14T00:48:45.496Z,45.23
2019-02-14T00:51:16.804Z,44.61
2019-02-14T00:53:46.996Z,44.52
2019-02-14T00:56:17.537Z,44.30
2019-02-14T00:58:47.741Z,44.16
2019-02-14T01:01:18.907Z,43.99
2019-02-14T01:03:50.750Z,44.58
2019-02-14T01:06:21.852Z,45.18
2019-02-14T01:08:53.467Z,45.35
2019-02-14T01:11:24.510Z,45.19
2019-02-14T01:13:55.134Z,44.48
2019-02-14T01:16:26.707Z,45.04
2019-02-14T01:18:58.909Z,46.28
2019-02-14T01:21:30.332Z,46.89
2019-02-14T01:24:01.720Z,46.47
2019-02-14T01:26:32.546Z,46.39
2019-02-14T01:29:05.468Z,46.59
2019-02-14T01:31:36.115Z,47.26
2019-02-14T01:34:08.011Z,47.17
2019-02-14T01:36:38.207Z,47.42
2019-02-14T01:39:08.438Z,46.73
2019-02-14T01:41:39.904Z,46.43
2019-02-14T01:44:10.506Z,46.22
2019-02-14T01:46:42.164Z,47.33
2019-02-14T01:49:14.677Z,47.34
2019-02-14T01:51:45.797Z,48.69
2019-02-14T01:54:18.689Z,49.44
2019-02-14T01:56:48.976Z,48.24
2019-02-14T01:59:19.542Z,47.27
2019-02-14T02:01:50.271Z,47.24
2019-02-14T02:04:21.234Z,47.31
2019-02-14T02:06:52.928Z,46.82
2019-02-14T02:09:23.497Z,46.90
2019-02-14T02:11:54.213Z,46.61
2019-02-14T02:14:24.384Z,48.63
2019-02-14T02:16:54.574Z,47.90
2019-02-14T02:19:25.574Z,47.92
2019-02-14T02:21:57.750Z,47.32
2019-02-14T02:24:31.530Z,48.05
2019-02-14T02:27:02.893Z,47.69
2019-02-14T02:29:34.220Z,47.88
2019-02-14T02:32:04.946Z,47.39
2019-02-14T02:34:36.650Z,47.54
2019-02-14T02:37:07.284Z,47.13
2019-02-14T02:39:37.464Z,46.66
2019-02-14T02:42:07.981Z,46.33
2019-02-14T02:44:38.723Z,47.53
2019-02-14T02:47:10.568Z,47.36
2019-02-14T02:49:41.512Z,47.72
2019-02-14T02:52:14.310Z,47.25
2019-02-14T02:54:45.371Z,48.24
2019-02-14T02:57:17.954Z,47.83
2019-02-14T02:59:49.128Z,47.86
2019-02-14T03:02:19.300Z,48.17
2019-02-14T03:04:49.540Z,47.07
2019-02-14T03:07:20.586Z,46.64
2019-02-14T03:09:50.774Z,46.63
2019-02-14T03:12:23.301Z,47.23
2019-02-14T03:14:54.390Z,46.80
2019-02-14T03:17:24.545Z,48.01
2019-02-14T03:19:55.723Z,47.49
2019-02-14T03:22:25.898Z,48.12
2019-02-14T03:24:58.531Z,48.82
2019-02-14T03:27:30.717Z,48.30
2019-02-14T03:30:01.431Z,47.59
2019-02-14T03:32:32.246Z,47.86
2019-02-14T03:35:02.553Z,48.93
2019-02-14T03:37:33.303Z,48.15
2019-02-14T03:40:05.831Z,48.18
2019-02-14T03:42:41.795Z,47.44
2019-02-14T03:45:17.539Z,47.84
2019-02-14T03:47:48.953Z,47.34
2019-02-14T03:50:19.521Z,47.13
2019-02-14T03:52:53.256Z,48.00
2019-02-14T03:55:25.774Z,48.84
2019-02-14T03:57:55.981Z,47.78
2019-02-14T04:00:28.998Z,47.55
2019-02-14T04:02:59.783Z,47.68
2019-02-14T04:05:32.349Z,47.65
2019-02-14T04:08:07.703Z,47.67
2019-02-14T04:10:37.983Z,46.91
2019-02-14T04:13:09.052Z,47.88
2019-02-14T04:15:40.803Z,48.32
2019-02-14T04:18:11.064Z,48.46
2019-02-14T04:20:41.749Z,48.23
2019-02-14T04:23:12.346Z,47.95
2019-02-14T04:25:43.988Z,48.50
2019-02-14T04:28:14.686Z,48.14
2019-02-14T04:30:47.194Z,47.93
2019-02-14T04:33:19.113Z,48.03
2019-02-14T04:35:53.979Z,48.85
2019-02-14T04:38:24.971Z,48.57
2019-02-14T04:40:55.698Z,48.22
2019-02-14T04:43:26.432Z,48.75
2019-02-14T04:45:57.137Z,48.27
2019-02-14T04:48:27.304Z,48.10
2019-02-14T04:50:58.426Z,50.58
2019-02-14T04:53:28.613Z,49.60
2019-02-14T04:55:58.837Z,50.59
2019-02-14T04:58:29.059Z,49.81
2019-02-14T05:01:01.093Z,50.42
2019-02-14T05:03:31.656Z,51.09
2019-02-14T05:06:03.049Z,51.55
2019-02-14T05:08:33.229Z,50.27
2019-02-14T05:11:03.453Z,50.57
2019-02-14T05:13:34.044Z,50.66
2019-02-14T05:16:04.643Z,51.85
2019-02-14T05:18:35.190Z,51.67
2019-02-14T05:21:06.745Z,51.46
2019-02-14T05:23:37.412Z,50.35
2019-02-14T05:26:10.409Z,51.32
2019-02-14T05:28:42.869Z,51.34
2019-02-14T05:31:13.879Z,50.66
2019-02-14T05:33:45.385Z,50.92
2019-02-14T05:36:27.082Z,50.54
2019-02-14T05:38:58.513Z,49.68
2019-02-14T05:41:28.679Z,49.83
2019-02-14T05:43:59.951Z,50.24
2019-02-14T05:46:31.385Z,50.10
2019-02-14T05:49:02.223Z,49.94
2019-02-14T05:51:32.425Z,49.66
2019-02-14T05:54:02.670Z,49.01
2019-02-14T05:56:36.800Z,49.90
2019-02-14T05:59:08.764Z,49.94
2019-02-14T06:01:41.312Z,50.25
2019-02-14T06:04:13.702Z,50.18
2019-02-14T06:06:46.673Z,49.69
2019-02-14T06:09:20.003Z,49.40
2019-02-14T06:11:53.633Z,49.18
2019-02-14T06:14:24.228Z,49.23
2019-02-14T06:16:55.657Z,50.24
2019-02-14T06:19:29.322Z,50.50
2019-02-14T06:22:00.267Z,49.59
2019-02-14T06:24:31.896Z,50.22
2019-02-14T06:27:04.329Z,49.60
2019-02-14T06:29:37.562Z,49.55
2019-02-14T06:32:08.098Z,49.00
2019-02-14T06:34:38.721Z,48.52
2019-02-14T06:37:09.962Z,48.78
2019-02-14T06:39:41.458Z,49.33
2019-02-14T06:42:12.021Z,49.34
2019-02-14T06:44:42.745Z,50.78
2019-02-14T06:47:13.330Z,51.50
2019-02-14T06:49:43.498Z,52.10
2019-02-14T06:52:15.882Z,52.36
2019-02-14T06:54:48.319Z,51.17
2019-02-14T06:57:19.186Z,51.83
2019-02-14T06:59:50.708Z,51.21
2019-02-14T07:02:21.321Z,50.85
2019-02-14T07:04:52.849Z,50.90
2019-02-14T07:07:25.936Z,51.85
2019-02-14T07:09:59.601Z,52.17
2019-02-14T07:12:31.076Z,51.44
2019-02-14T07:15:03.385Z,51.81
2019-02-14T07:17:39.420Z,51.60
2019-02-14T07:20:13.647Z,51.53
2019-02-14T07:22:45.384Z,51.38
2019-02-14T07:25:23.650Z,50.63
2019-02-14T07:27:58.005Z,50.60
2019-02-14T07:30:31.680Z,49.82
2019-02-14T07:33:04.861Z,49.80
2019-02-14T07:35:36.709Z,49.51
2019-02-14T07:38:08.573Z,49.06
2019-02-14T07:40:39.682Z,48.67
2019-02-14T07:43:10.635Z,49.01
2019-02-14T07:45:42.706Z,48.86
2019-02-14T07:48:13.950Z,48.15
2019-02-14T07:50:45.411Z,48.89
2019-02-14T07:53:17.088Z,48.24
2019-02-14T07:55:51.222Z,48.44
2019-02-14T07:58:21.408Z,49.22
2019-02-14T08:00:53.365Z,48.34
2019-02-14T08:03:23.552Z,49.14
2019-02-14T08:05:55.345Z,47.81
2019-02-14T08:08:27.478Z,47.68
2019-02-14T08:10:58.824Z,48.64
2019-02-14T08:13:29.968Z,48.59
2019-02-14T08:16:00.503Z,47.81
2019-02-14T08:18:32.237Z,48.74
2019-02-14T08:21:02.940Z,47.46
2019-02-14T08:23:36.010Z,47.12
2019-02-14T08:26:10.835Z,47.80
2019-02-14T08:28:40.979Z,48.35
2019-02-14T08:31:13.693Z,47.72
2019-02-14T08:33:47.834Z,46.88
2019-02-14T08:36:22.502Z,46.36
2019-02-14T08:38:54.979Z,46.99
2019-02-14T08:41:37.563Z,47.24
2019-02-14T08:44:08.396Z,46.67
2019-02-14T08:47:03.504Z,46.45
2019-02-14T08:49:36.928Z,46.20
2019-02-14T08:52:09.562Z,47.29
2019-02-14T08:54:42.812Z,45.87
2019-02-14T08:57:13.886Z,47.07
2019-02-14T08:59:45.004Z,46.08
2019-02-14T09:02:16.305Z,46.70
2019-02-14T09:04:47.326Z,45.97
2019-02-14T09:07:19.623Z,46.12
2019-02-14T09:09:50.631Z,45.95
2019-02-14T09:12:21.995Z,46.06
2019-02-14T09:14:53.306Z,46.31
2019-02-14T09:17:24.695Z,46.22
2019-02-14T09:19:56.470Z,46.24
2019-02-14T09:22:27.806Z,45.03
2019-02-14T09:25:01.332Z,45.61
2019-02-14T09:27:40.411Z,44.26
2019-02-14T09:30:25.511Z,43.23
2019-02-14T09:32:57.009Z,43.20
2019-02-14T09:35:29.231Z,42.66
2019-02-14T09:38:03.437Z,42.43
2019-02-14T09:40:32.750Z,42.18
2019-02-14T09:43:03.776Z,42.16
2019-02-14T09:45:39.358Z,41.32
2019-02-14T09:48:10.737Z,40.76
2019-02-14T09:50:42.905Z,41.37
2019-02-14T09:53:14.118Z,40.34
2019-02-14T09:55:45.750Z,40.80
2019-02-14T09:58:20.306Z,40.66
2019-02-14T10:00:51.869Z,40.73
2019-02-14T10:03:23.778Z,40.75
2019-02-14T10:05:56.401Z,40.00
2019-02-14T10:08:29.909Z,39.95
2019-02-14T10:11:01.055Z,39.65
2019-02-14T10:13:33.004Z,40.42
2019-02-14T10:16:04.399Z,39.79
2019-02-14T10:18:38.156Z,39.92
2019-02-14T10:21:09.305Z,40.90
2019-02-14T10:23:40.746Z,40.25
2019-02-14T10:26:12.018Z,39.76
2019-02-14T10:28:43.204Z,39.13
2019-02-14T10:31:15.295Z,39.74
2019-02-14T10:33:47.789Z,40.26
2019-02-14T10:36:49.106Z,40.00
2019-02-14T10:39:22.632Z,40.59
2019-02-14T10:41:54.903Z,40.04
2019-02-14T10:44:27.050Z,39.48
2019-02-14T10:47:02.041Z,39.06
2019-02-14T10:49:32.673Z,38.64
2019-02-14T10:52:03.427Z,38.61
2019-02-14T10:54:34.823Z,38.18
2019-02-14T10:57:06.668Z,38.31
2019-02-14T10:59:41.283Z,37.67
2019-02-14T11:02:15.515Z,37.51
2019-02-14T11:04:48.813Z,36.14
2019-02-14T11:07:21.859Z,35.61
2019-02-14T11:09:52.030Z,34.44
2019-02-14T11:12:26.933Z,34.21
2019-02-14T11:14:59.871Z,33.03
2019-02-14T11:17:30.468Z,33.00
2019-02-14T11:20:03.048Z,31.95
2019-02-14T11:22:34.260Z,31.37
2019-02-14T11:25:06.263Z,30.55
2019-02-14T11:27:42.973Z,29.77
2019-02-14T11:30:17.891Z,29.02
2019-02-14T11:32:48.739Z,28.38
2019-02-14T11:35:22.549Z,27.05
2019-02-14T11:37:55.780Z,25.77
2019-02-14T11:40:34.104Z,23.97
2019-02-14T11:43:07.508Z,23.28
2019-02-14T11:45:39.963Z,22.47
2019-02-14T11:48:11.448Z,22.49
2019-02-14T11:50:42.290Z,22.63
2019-02-14T11:53:14.132Z,22.28
2019-02-14T11:55:45.662Z,22.72
2019-02-14T11:58:18.940Z,22.30
2019-02-14T12:00:49.451Z,22.91
2019-02-14T12:03:21.906Z,23.99
2019-02-14T12:06:02.152Z,24.28
2019-02-14T12:08:35.345Z,24.76
2019-02-14T12:11:09.954Z,24.46
2019-02-14T12:13:41.090Z,25.82
2019-02-14T12:16:12.562Z,26.19
2019-02-14T12:18:44.298Z,25.84
2019-02-14T12:21:18.408Z,24.17
2019-02-14T12:23:50.957Z,21.25
2019-02-14T12:26:23.028Z,19.59
2019-02-14T12:28:54.454Z,18.35
2019-02-14T12:31:26.064Z,17.51
2019-02-14T12:34:00.458Z,17.29
2019-02-14T12:36:32.011Z,17.75
2019-02-14T12:39:09.140Z,17.75
2019-02-14T12:41:40.440Z,17.40
2019-02-14T12:44:14.854Z,16.69
2019-02-14T12:46:48.140Z,16.69
2019-02-14T12:49:18.836Z,16.92
2019-02-14T12:51:53.909Z,16.92
2019-02-14T12:54:24.540Z,17.04
2019-02-14T12:56:55.072Z,17.42
2019-02-14T12:59:25.688Z,18.33
2019-02-14T13:02:01.588Z,17.80
2019-02-14T13:04:33.117Z,19.91
2019-02-14T13:07:04.214Z,20.04
2019-02-14T13:09:34.391Z,19.88
2019-02-14T13:12:06.603Z,19.01
2019-02-14T13:14:38.613Z,19.51
2019-02-14T13:17:20.599Z,19.83
2019-02-14T13:19:56.900Z,19.00
2019-02-14T13:22:28.357Z,19.35
2019-02-14T13:24:58.878Z,17.66
2019-02-14T13:27:35.705Z,17.66
2019-02-14T13:30:09.420Z,17.60
2019-02-14T13:32:41.345Z,16.51
2019-02-14T13:35:23.536Z,16.76
2019-02-14T13:37:54.642Z,16.65
2019-02-14T13:40:29.390Z,15.63
2019-02-14T13:43:00.912Z,15.55
2019-02-14T13:45:34.345Z,15.40
2019-02-14T13:48:07.686Z,16.07
2019-02-14T13:50:38.209Z,16.63
2019-02-14T13:53:09.682Z,17.34
2019-02-14T13:55:47.369Z,18.00
2019-02-14T13:58:23.608Z,18.35
2019-02-14T14:00:54.617Z,19.16
2019-02-14T14:03:30.686Z,18.29
2019-02-14T14:06:04.095Z,19.13
2019-02-14T14:08:35.234Z,20.46
2019-02-14T14:11:05.388Z,20.87
2019-02-14T14:13:37.034Z,20.46
2019-02-14T14:16:07.645Z,21.07
2019-02-14T14:18:38.514Z,22.37
2019-02-14T14:21:10.863Z,21.75
2019-02-14T14:23:44.715Z,22.61
2019-02-14T14:26:17.999Z,22.51
2019-02-14T14:28:48.903Z,21.85
2019-02-14T14:31:21.055Z,22.21
2019-02-14T14:33:52.808Z,22.56
2019-02-14T14:36:25.884Z,23.61
2019-02-14T14:38:56.567Z,22.85
2019-02-14T14:41:26.762Z,23.36
2019-02-14T14:44:26.770Z,23.82
2019-02-14T14:47:04.818Z,24.48
2019-02-14T14:49:37.316Z,24.67
2019-02-14T14:52:08.223Z,25.35
2019-02-14T14:54:40.177Z,25.32
2019-02-14T14:57:10.761Z,26.00
2019-02-14T14:59:43.850Z,25.56
2019-02-14T15:02:14.399Z,25.78
2019-02-14T15:04:46.058Z,25.15
2019-02-14T15:07:17.967Z,25.07
2019-02-14T15:09:57.333Z,22.57
2019-02-14T15:12:20.770Z,25.16
2019-02-14T15:14:53.483Z,23.74
2019-02-14T15:17:26.085Z,23.92
2019-02-14T15:20:00.506Z,23.62
2019-02-14T15:22:30.636Z,22.95
2019-02-14T15:25:01.824Z,22.66
2019-02-14T15:27:32.871Z,21.84
2019-02-14T15:30:03.205Z,21.78
2019-02-14T15:32:35.984Z,21.48
2019-02-14T15:35:09.281Z,22.32
2019-02-14T15:37:44.541Z,21.47
2019-02-14T15:40:15.613Z,21.20
2019-02-14T15:42:46.174Z,21.17
2019-02-14T15:45:22.461Z,20.73
2019-02-14T15:47:53.090Z,20.68
2019-02-14T15:50:27.887Z,20.61
2019-02-14T15:53:00.577Z,20.78
2019-02-14T15:55:31.433Z,20.98
2019-02-14T15:58:07.324Z,22.90
2019-02-14T16:00:41.217Z,22.24
2019-02-14T16:03:17.855Z,21.61
2019-02-14T16:05:51.301Z,21.54
2019-02-14T16:08:23.921Z,23.52
2019-02-14T16:10:55.883Z,21.54
2019-02-14T16:13:26.153Z,21.97
2019-02-14T16:15:58.764Z,22.39
2019-02-14T16:18:29.493Z,22.51
2019-02-14T16:21:03.542Z,22.52
2019-02-14T16:23:34.464Z,22.28
2019-02-14T16:26:06.045Z,22.87
2019-02-14T16:28:41.085Z,22.56
2019-02-14T16:31:16.278Z,21.95
2019-02-14T16:33:47.322Z,21.68
2019-02-14T16:36:20.622Z,21.69
2019-02-14T16:38:52.301Z,21.63
2019-02-14T16:41:24.074Z,22.01
2019-02-14T16:43:54.789Z,22.12
2019-02-14T16:46:27.139Z,21.79
2019-02-14T16:48:57.331Z,21.74
2019-02-14T16:51:27.487Z,22.15
2019-02-14T16:53:59.404Z,21.99
2019-02-14T16:56:30.499Z,22.14
2019-02-14T16:59:00.895Z,22.09
2019-02-14T17:01:33.206Z,22.99
2019-02-14T17:04:04.856Z,23.44
2019-02-14T17:06:36.652Z,23.90
2019-02-14T17:09:10.412Z,24.37
2019-02-14T17:11:42.824Z,22.81
2019-02-14T17:14:13.399Z,23.11
2019-02-14T17:16:44.341Z,23.08
2019-02-14T17:19:19.221Z,23.45
2019-02-14T17:21:49.398Z,24.10
2019-02-14T17:24:21.801Z,24.05
2019-02-14T17:26:54.803Z,23.32
2019-02-14T17:29:26.299Z,23.48
2019-02-14T17:31:57.504Z,24.12
2019-02-14T17:34:27.732Z,23.87
2019-02-14T17:37:12.917Z,23.91
2019-02-14T17:39:50.705Z,24.13
2019-02-14T17:42:22.442Z,24.26
2019-02-14T17:44:55.976Z,24.48
2019-02-14T17:47:28.478Z,24.37
2019-02-14T17:50:02.604Z,24.38
2019-02-14T17:52:33.236Z,24.31
2019-02-14T17:55:06.503Z,24.56
2019-02-14T17:57:39.791Z,24.92
2019-02-14T18:00:11.766Z,24.59
2019-02-14T18:02:44.531Z,24.85
2019-02-14T18:05:16.394Z,25.05
2019-02-14T18:07:46.570Z,25.01
2019-02-14T18:10:19.643Z,25.08
2019-02-14T18:12:51.369Z,25.23
2019-02-14T18:15:21.946Z,25.57
2019-02-14T18:17:54.192Z,25.09
2019-02-14T18:20:25.657Z,24.84
2019-02-14T18:22:57.578Z,24.70
2019-02-14T18:25:28.149Z,24.86
2019-02-14T18:28:01.144Z,24.98
2019-02-14T18:30:32.102Z,24.66
2019-02-14T18:33:03.119Z,24.88
2019-02-14T18:35:34.064Z,24.90
2019-02-14T18:38:06.732Z,25.16
2019-02-14T18:40:40.853Z,25.22
2019-02-14T18:43:17.245Z,25.00
2019-02-14T18:45:48.575Z,25.25
2019-02-14T18:48:19.176Z,24.88
2019-02-14T18:50:50.424Z,25.12
2019-02-14T18:53:21.275Z,25.26
2019-02-14T18:55:52.859Z,25.38
2019-02-14T18:58:26.852Z,25.73
2019-02-14T19:01:02.722Z,25.47
2019-02-14T19:03:36.145Z,25.72
2019-02-14T19:06:07.683Z,25.66
2019-02-14T19:08:43.565Z,25.76
2019-02-14T19:11:21.001Z,25.64
2019-02-14T19:13:57.782Z,26.14
2019-02-14T19:16:29.523Z,26.49
2019-02-14T19:18:59.703Z,26.97
2019-02-14T19:21:29.988Z,26.48
2019-02-14T19:24:01.060Z,27.24
2019-02-14T19:26:33.048Z,27.22
2019-02-14T19:29:07.977Z,27.48
2019-02-14T19:31:39.020Z,27.43
2019-02-14T19:34:10.455Z,28.17
2019-02-14T19:36:40.983Z,28.14
2019-02-14T19:39:12.101Z,27.88
2019-02-14T19:41:47.781Z,27.75
2019-02-14T19:44:19.529Z,27.78
2019-02-14T19:46:50.196Z,28.39
2019-02-14T19:49:20.384Z,28.07
2019-02-14T19:51:53.229Z,27.96
2019-02-14T19:54:28.623Z,28.69
2019-02-14T19:57:01.224Z,28.33
2019-02-14T19:59:34.236Z,28.72
2019-02-14T20:02:07.868Z,28.91
2019-02-14T20:04:43.644Z,29.72
2019-02-14T20:07:15.059Z,28.81
2019-02-14T20:09:47.405Z,28.93
2019-02-14T20:12:17.812Z,28.48
2019-02-14T20:14:50.795Z,28.91
2019-02-14T20:17:28.975Z,29.07
2019-02-14T20:20:01.247Z,28.90
2019-02-14T20:22:31.847Z,29.11
2019-02-14T20:25:03.307Z,29.49
2019-02-14T20:27:36.381Z,29.69
2019-02-14T20:30:09.858Z,29.47
2019-02-14T20:32:40.033Z,29.26
2019-02-14T20:35:11.052Z,29.46
2019-02-14T20:37:41.689Z,29.64
2019-02-14T20:40:15.967Z,29.64
2019-02-14T20:42:48.440Z,29.43
2019-02-14T20:45:22.757Z,29.32
2019-02-14T20:47:57.062Z,29.70
2019-02-14T20:50:26.583Z,30.79
2019-02-14T20:52:56.744Z,29.95
2019-02-14T20:55:30.867Z,29.85
2019-02-14T20:58:06.799Z,30.37
2019-02-14T21:00:40.510Z,30.75
2019-02-14T21:03:17.353Z,30.94
2019-02-14T21:05:51.624Z,31.34
2019-02-14T21:08:25.889Z,30.84
2019-02-14T21:10:58.822Z,30.41
2019-02-14T21:13:29.928Z,30.33
2019-02-14T21:16:03.525Z,31.07
2019-02-14T21:18:36.038Z,30.63
2019-02-14T21:21:08.280Z,30.49
2019-02-14T21:23:41.391Z,30.91
2019-02-14T21:26:13.912Z,30.82
2019-02-14T21:28:44.655Z,30.97
2019-02-14T21:31:16.823Z,30.79
2019-02-14T21:33:48.322Z,31.56
2019-02-14T21:36:20.323Z,31.14
2019-02-14T21:38:53.038Z,31.20
2019-02-14T21:41:24.424Z,31.35
2019-02-14T21:43:56.915Z,32.22
2019-02-14T21:46:28.401Z,32.11
2019-02-14T21:48:59.546Z,32.19
2019-02-14T21:51:30.128Z,32.33
2019-02-14T21:54:04.705Z,32.52
2019-02-14T21:56:36.772Z,32.00
2019-02-14T21:59:06.940Z,32.59
2019-02-14T22:01:42.501Z,32.39
2019-02-14T22:04:14.492Z,32.84
2019-02-14T22:06:46.980Z,32.46
2019-02-14T22:09:18.193Z,32.71
2019-02-14T22:11:49.387Z,32.89
2019-02-14T22:14:20.620Z,32.34
2019-02-14T22:16:52.569Z,33.21
2019-02-14T22:19:23.056Z,32.57
2019-02-14T22:21:55.899Z,32.08
2019-02-14T22:24:26.459Z,32.79
2019-02-14T22:26:56.706Z,33.01
2019-02-14T22:29:27.627Z,32.21
2019-02-14T22:31:59.614Z,32.10
2019-02-14T22:34:31.421Z,32.16
2019-02-14T22:37:01.998Z,32.18
2019-02-14T22:39:32.214Z,32.55
2019-02-14T22:42:57.352Z,32.06
2019-02-14T22:45:30.716Z,32.00
2019-02-14T22:48:01.405Z,32.26
2019-02-14T22:50:31.587Z,32.62
2019-02-14T22:53:02.631Z,32.28
2019-02-14T22:55:33.116Z,31.91
2019-02-14T22:58:05.785Z,32.67
2019-02-14T23:00:55.018Z,32.62
2019-02-14T23:03:28.541Z,32.64
2019-02-14T23:05:59.678Z,33.01
2019-02-14T23:08:36.580Z,32.80
2019-02-14T23:11:10.475Z,33.16
2019-02-14T23:13:48.833Z,32.34
2019-02-14T23:16:21.293Z,32.54
2019-02-14T23:19:08.274Z,32.37
2019-02-14T23:21:39.826Z,31.87
2019-02-14T23:24:12.166Z,32.57
2019-02-14T23:26:52.532Z,31.79
2019-02-14T23:29:24.127Z,32.40
2019-02-14T23:31:55.522Z,32.98
2019-02-14T23:34:31.496Z,33.03
2019-02-14T23:37:03.012Z,32.82
2019-02-14T23:39:34.034Z,32.65
2019-02-14T23:42:06.068Z,32.82
2019-02-14T23:44:38.451Z,33.52
2019-02-14T23:47:11.116Z,33.61
2019-02-14T23:49:42.302Z,33.79
2019-02-14T23:52:13.489Z,33.52
2019-02-14T23:54:44.282Z,33.54
2019-02-14T23:57:14.830Z,33.61
2019-02-14T23:59:45.709Z,33.26
